sensor_id;sensor_type;location;lat;lon;timestamp;P1;P2;P0
24012;PMS7003;12220;50.194;18.948;2023-07-09T00:00:34;16;16;13
24012;PMS7003;12220;50.194;18.948;2023-07-09T00:02:41;14;14;12
24012;PMS7003;12220;50.194;18.948;2023-07-09T00:04:46;14;14;13
24012;PMS7003;12220;50.194;18.948;2023-07-09T00:06:47;13;13;11
24012;PMS7003;12220;50.194;18.948;2023-07-09T00:08:49;19;16;13
24012;PMS7003;12220;50.194;18.948;2023-07-09T00:10:50;12;12;11
24012;PMS7003;12220;50.194;18.948;2023-07-09T00:12:54;16;15;12
24012;PMS7003;12220;50.194;18.948;2023-07-09T00:17:26;16;16;13
24012;PMS7003;12220;50.194;18.948;2023-07-09T00:19:29;13;13;11
24012;PMS7003;12220;50.194;18.948;2023-07-09T00:21:36;12;12;10
24012;PMS7003;12220;50.194;18.948;2023-07-09T00:23:38;14;14;11
24012;PMS7003;12220;50.194;18.948;2023-07-09T00:25:45;14;14;12
24012;PMS7003;12220;50.194;18.948;2023-07-09T00:27:48;14;14;12
24012;PMS7003;12220;50.194;18.948;2023-07-09T00:29:51;17;17;15
24012;PMS7003;12220;50.194;18.948;2023-07-09T00:31:55;15;15;13
24012;PMS7003;12220;50.194;18.948;2023-07-09T00:33:57;18;14;13
24012;PMS7003;12220;50.194;18.948;2023-07-09T00:36:00;15;14;12
24012;PMS7003;12220;50.194;18.948;2023-07-09T00:38:09;14;13;11
24012;PMS7003;12220;50.194;18.948;2023-07-09T00:40:28;14;13;12
24012;PMS7003;12220;50.194;18.948;2023-07-09T00:42:29;19;15;13
24012;PMS7003;12220;50.194;18.948;2023-07-09T00:44:31;15;13;10
24012;PMS7003;12220;50.194;18.948;2023-07-09T00:48:47;18;17;14
24012;PMS7003;12220;50.194;18.948;2023-07-09T00:51:04;11;11;8
24012;PMS7003;12220;50.194;18.948;2023-07-09T00:53:19;12;12;10
24012;PMS7003;12220;50.194;18.948;2023-07-09T00:55:26;16;16;14
24012;PMS7003;12220;50.194;18.948;2023-07-09T00:57:32;15;12;12
24012;PMS7003;12220;50.194;18.948;2023-07-09T00:59:38;13;13;12
24012;PMS7003;12220;50.194;18.948;2023-07-09T01:01:51;14;14;12
24012;PMS7003;12220;50.194;18.948;2023-07-09T01:03:55;13;13;10
24012;PMS7003;12220;50.194;18.948;2023-07-09T01:05:59;14;14;11
24012;PMS7003;12220;50.194;18.948;2023-07-09T01:08:04;11;11;9
24012;PMS7003;12220;50.194;18.948;2023-07-09T01:10:10;12;12;11
24012;PMS7003;12220;50.194;18.948;2023-07-09T01:12:14;15;14;11
24012;PMS7003;12220;50.194;18.948;2023-07-09T01:14:19;15;15;13
24012;PMS7003;12220;50.194;18.948;2023-07-09T01:16:25;9;8;8
24012;PMS7003;12220;50.194;18.948;2023-07-09T01:18:29;16;15;12
24012;PMS7003;12220;50.194;18.948;2023-07-09T01:20:32;13;13;11
24012;PMS7003;12220;50.194;18.948;2023-07-09T01:22:34;12;12;9
24012;PMS7003;12220;50.194;18.948;2023-07-09T01:26:49;16;15;12
24012;PMS7003;12220;50.194;18.948;2023-07-09T01:29:00;15;15;13
24012;PMS7003;12220;50.194;18.948;2023-07-09T01:31:04;10;10;9
24012;PMS7003;12220;50.194;18.948;2023-07-09T01:33:05;14;14;11
24012;PMS7003;12220;50.194;18.948;2023-07-09T01:35:10;12;12;10
24012;PMS7003;12220;50.194;18.948;2023-07-09T01:37:16;17;16;13
24012;PMS7003;12220;50.194;18.948;2023-07-09T01:39:22;14;12;10
24012;PMS7003;12220;50.194;18.948;2023-07-09T01:41:23;13;13;11
24012;PMS7003;12220;50.194;18.948;2023-07-09T01:43:25;13;13;12
24012;PMS7003;12220;50.194;18.948;2023-07-09T01:45:30;16;15;12
24012;PMS7003;12220;50.194;18.948;2023-07-09T01:47:33;13;12;9
24012;PMS7003;12220;50.194;18.948;2023-07-09T01:49:35;11;11;10
24012;PMS7003;12220;50.194;18.948;2023-07-09T01:51:36;14;14;12
24012;PMS7003;12220;50.194;18.948;2023-07-09T01:53:45;16;16;12
24012;PMS7003;12220;50.194;18.948;2023-07-09T01:55:47;13;13;12
24012;PMS7003;12220;50.194;18.948;2023-07-09T01:57:48;14;14;11
24012;PMS7003;12220;50.194;18.948;2023-07-09T01:59:53;14;12;11
24012;PMS7003;12220;50.194;18.948;2023-07-09T02:02:00;13;13;11
24012;PMS7003;12220;50.194;18.948;2023-07-09T02:04:02;11;11;11
24012;PMS7003;12220;50.194;18.948;2023-07-09T02:06:04;16;16;12
24012;PMS7003;12220;50.194;18.948;2023-07-09T02:08:09;13;13;11
24012;PMS7003;12220;50.194;18.948;2023-07-09T02:10:16;14;13;11
24012;PMS7003;12220;50.194;18.948;2023-07-09T02:12:18;14;13;12
24012;PMS7003;12220;50.194;18.948;2023-07-09T02:14:20;13;12;11
24012;PMS7003;12220;50.194;18.948;2023-07-09T02:16:21;15;15;13
24012;PMS7003;12220;50.194;18.948;2023-07-09T02:18:30;18;16;14
24012;PMS7003;12220;50.194;18.948;2023-07-09T02:20:31;12;12;8
24012;PMS7003;12220;50.194;18.948;2023-07-09T02:22:33;14;14;11
24012;PMS7003;12220;50.194;18.948;2023-07-09T02:24:35;13;13;11
24012;PMS7003;12220;50.194;18.948;2023-07-09T02:26:48;14;14;13
24012;PMS7003;12220;50.194;18.948;2023-07-09T02:28:49;11;11;9
24012;PMS7003;12220;50.194;18.948;2023-07-09T02:30:51;13;13;11
24012;PMS7003;12220;50.194;18.948;2023-07-09T02:32:53;11;11;10
24012;PMS7003;12220;50.194;18.948;2023-07-09T02:35:00;11;11;10
24012;PMS7003;12220;50.194;18.948;2023-07-09T02:37:01;14;14;11
24012;PMS7003;12220;50.194;18.948;2023-07-09T02:39:03;16;13;11
24012;PMS7003;12220;50.194;18.948;2023-07-09T02:41:04;11;11;8
24012;PMS7003;12220;50.194;18.948;2023-07-09T02:43:15;13;11;10
24012;PMS7003;12220;50.194;18.948;2023-07-09T02:45:16;13;13;12
24012;PMS7003;12220;50.194;18.948;2023-07-09T02:47:18;15;14;13
24012;PMS7003;12220;50.194;18.948;2023-07-09T02:49:20;18;18;15
24012;PMS7003;12220;50.194;18.948;2023-07-09T02:51:30;18;14;12
24012;PMS7003;12220;50.194;18.948;2023-07-09T02:53:31;18;18;16
24012;PMS7003;12220;50.194;18.948;2023-07-09T02:55:32;15;15;13
24012;PMS7003;12220;50.194;18.948;2023-07-09T02:57:35;20;17;15
24012;PMS7003;12220;50.194;18.948;2023-07-09T02:59:44;12;12;10
24012;PMS7003;12220;50.194;18.948;2023-07-09T03:01:46;11;11;9
24012;PMS7003;12220;50.194;18.948;2023-07-09T03:03:48;16;16;13
24012;PMS7003;12220;50.194;18.948;2023-07-09T03:05:49;12;12;10
24012;PMS7003;12220;50.194;18.948;2023-07-09T03:07:59;10;10;10
24012;PMS7003;12220;50.194;18.948;2023-07-09T03:10:01;15;12;12
24012;PMS7003;12220;50.194;18.948;2023-07-09T03:12:02;13;9;8
24012;PMS7003;12220;50.194;18.948;2023-07-09T03:14:04;13;13;11
24012;PMS7003;12220;50.194;18.948;2023-07-09T03:16:15;13;13;10
24012;PMS7003;12220;50.194;18.948;2023-07-09T03:18:16;13;12;9
24012;PMS7003;12220;50.194;18.948;2023-07-09T03:20:18;10;10;8
24012;PMS7003;12220;50.194;18.948;2023-07-09T03:22:19;15;14;12
24012;PMS7003;12220;50.194;18.948;2023-07-09T03:24:29;12;12;10
24012;PMS7003;12220;50.194;18.948;2023-07-09T03:26:31;14;14;12
24012;PMS7003;12220;50.194;18.948;2023-07-09T03:28:32;18;13;12
24012;PMS7003;12220;50.194;18.948;2023-07-09T03:30:34;15;15;12
24012;PMS7003;12220;50.194;18.948;2023-07-09T03:32:45;15;14;12
24012;PMS7003;12220;50.194;18.948;2023-07-09T03:34:49;13;13;10
24012;PMS7003;12220;50.194;18.948;2023-07-09T03:36:51;15;15;12
24012;PMS7003;12220;50.194;18.948;2023-07-09T03:38:53;15;15;13
24012;PMS7003;12220;50.194;18.948;2023-07-09T03:40:59;12;11;10
24012;PMS7003;12220;50.194;18.948;2023-07-09T03:43:00;17;12;10
24012;PMS7003;12220;50.194;18.948;2023-07-09T03:45:02;10;10;9
24012;PMS7003;12220;50.194;18.948;2023-07-09T03:47:06;14;12;10
24012;PMS7003;12220;50.194;18.948;2023-07-09T03:49:14;17;15;11
24012;PMS7003;12220;50.194;18.948;2023-07-09T03:51:16;13;12;9
24012;PMS7003;12220;50.194;18.948;2023-07-09T03:53:18;13;12;11
24012;PMS7003;12220;50.194;18.948;2023-07-09T03:55:19;14;14;13
24012;PMS7003;12220;50.194;18.948;2023-07-09T03:57:32;13;12;12
24012;PMS7003;12220;50.194;18.948;2023-07-09T03:59:34;18;15;13
24012;PMS7003;12220;50.194;18.948;2023-07-09T04:01:40;12;12;11
24012;PMS7003;12220;50.194;18.948;2023-07-09T04:03:46;14;14;11
24012;PMS7003;12220;50.194;18.948;2023-07-09T04:05:48;14;14;12
24012;PMS7003;12220;50.194;18.948;2023-07-09T04:07:50;12;12;10
24012;PMS7003;12220;50.194;18.948;2023-07-09T04:09:51;11;11;10
24012;PMS7003;12220;50.194;18.948;2023-07-09T04:11:54;12;11;9
24012;PMS7003;12220;50.194;18.948;2023-07-09T04:13:59;13;13;11
24012;PMS7003;12220;50.194;18.948;2023-07-09T04:16:01;12;12;9
24012;PMS7003;12220;50.194;18.948;2023-07-09T04:18:02;13;13;12
24012;PMS7003;12220;50.194;18.948;2023-07-09T04:20:04;14;13;12
24012;PMS7003;12220;50.194;18.948;2023-07-09T04:22:14;12;12;9
24012;PMS7003;12220;50.194;18.948;2023-07-09T04:24:16;17;14;12
24012;PMS7003;12220;50.194;18.948;2023-07-09T04:26:19;17;15;14
24012;PMS7003;12220;50.194;18.948;2023-07-09T04:28:20;14;12;11
24012;PMS7003;12220;50.194;18.948;2023-07-09T04:30:29;11;11;8
24012;PMS7003;12220;50.194;18.948;2023-07-09T04:32:31;13;13;10
24012;PMS7003;12220;50.194;18.948;2023-07-09T04:34:32;13;12;10
24012;PMS7003;12220;50.194;18.948;2023-07-09T04:36:34;17;16;14
24012;PMS7003;12220;50.194;18.948;2023-07-09T04:38:44;14;14;12
24012;PMS7003;12220;50.194;18.948;2023-07-09T04:40:46;17;14;13
24012;PMS7003;12220;50.194;18.948;2023-07-09T04:42:50;15;14;13
24012;PMS7003;12220;50.194;18.948;2023-07-09T04:44:52;12;11;10
24012;PMS7003;12220;50.194;18.948;2023-07-09T04:46:59;19;13;10
24012;PMS7003;12220;50.194;18.948;2023-07-09T04:49:00;14;13;12
24012;PMS7003;12220;50.194;18.948;2023-07-09T04:51:02;16;16;14
24012;PMS7003;12220;50.194;18.948;2023-07-09T04:53:04;17;17;15
24012;PMS7003;12220;50.194;18.948;2023-07-09T04:55:14;17;12;11
24012;PMS7003;12220;50.194;18.948;2023-07-09T04:57:19;17;16;12
24012;PMS7003;12220;50.194;18.948;2023-07-09T04:59:20;19;15;11
24012;PMS7003;12220;50.194;18.948;2023-07-09T05:01:21;15;15;13
24012;PMS7003;12220;50.194;18.948;2023-07-09T05:03:29;17;17;16
24012;PMS7003;12220;50.194;18.948;2023-07-09T05:05:30;16;15;14
24012;PMS7003;12220;50.194;18.948;2023-07-09T05:07:32;16;14;12
24012;PMS7003;12220;50.194;18.948;2023-07-09T05:09:34;16;16;14
24012;PMS7003;12220;50.194;18.948;2023-07-09T05:11:44;19;19;15
24012;PMS7003;12220;50.194;18.948;2023-07-09T05:13:45;17;17;12
24012;PMS7003;12220;50.194;18.948;2023-07-09T05:15:47;16;15;13
24012;PMS7003;12220;50.194;18.948;2023-07-09T05:17:48;14;13;13
24012;PMS7003;12220;50.194;18.948;2023-07-09T05:20:01;19;18;14
24012;PMS7003;12220;50.194;18.948;2023-07-09T05:22:03;14;14;12
24012;PMS7003;12220;50.194;18.948;2023-07-09T05:24:05;14;14;12
24012;PMS7003;12220;50.194;18.948;2023-07-09T05:26:06;17;17;14
24012;PMS7003;12220;50.194;18.948;2023-07-09T05:28:14;15;15;11
24012;PMS7003;12220;50.194;18.948;2023-07-09T05:30:15;19;17;14
24012;PMS7003;12220;50.194;18.948;2023-07-09T05:32:16;18;18;16
24012;PMS7003;12220;50.194;18.948;2023-07-09T05:34:19;21;18;13
24012;PMS7003;12220;50.194;18.948;2023-07-09T05:36:29;19;16;14
24012;PMS7003;12220;50.194;18.948;2023-07-09T05:38:31;16;13;11
24012;PMS7003;12220;50.194;18.948;2023-07-09T05:40:32;19;19;15
24012;PMS7003;12220;50.194;18.948;2023-07-09T05:42:33;15;15;12
24012;PMS7003;12220;50.194;18.948;2023-07-09T05:44:43;18;15;12
24012;PMS7003;12220;50.194;18.948;2023-07-09T05:46:45;15;14;11
24012;PMS7003;12220;50.194;18.948;2023-07-09T05:48:46;13;13;11
24012;PMS7003;12220;50.194;18.948;2023-07-09T05:50:48;18;16;14
24012;PMS7003;12220;50.194;18.948;2023-07-09T05:52:58;15;15;12
24012;PMS7003;12220;50.194;18.948;2023-07-09T05:55:00;20;19;15
24012;PMS7003;12220;50.194;18.948;2023-07-09T05:57:01;16;14;13
24012;PMS7003;12220;50.194;18.948;2023-07-09T05:59:07;20;20;14
24012;PMS7003;12220;50.194;18.948;2023-07-09T06:01:16;18;18;14
24012;PMS7003;12220;50.194;18.948;2023-07-09T06:03:20;18;17;14
24012;PMS7003;12220;50.194;18.948;2023-07-09T06:05:23;20;17;14
24012;PMS7003;12220;50.194;18.948;2023-07-09T06:07:25;20;18;16
24012;PMS7003;12220;50.194;18.948;2023-07-09T06:09:28;18;16;13
24012;PMS7003;12220;50.194;18.948;2023-07-09T06:11:30;14;14;12
24012;PMS7003;12220;50.194;18.948;2023-07-09T06:13:31;21;21;16
24012;PMS7003;12220;50.194;18.948;2023-07-09T06:15:33;17;17;14
24012;PMS7003;12220;50.194;18.948;2023-07-09T06:17:43;18;15;13
24012;PMS7003;12220;50.194;18.948;2023-07-09T06:19:45;18;18;15
24012;PMS7003;12220;50.194;18.948;2023-07-09T06:21:46;14;14;13
24012;PMS7003;12220;50.194;18.948;2023-07-09T06:23:47;20;20;15
24012;PMS7003;12220;50.194;18.948;2023-07-09T06:25:58;17;17;15
24012;PMS7003;12220;50.194;18.948;2023-07-09T06:28:00;20;19;15
24012;PMS7003;12220;50.194;18.948;2023-07-09T06:30:01;17;17;15
24012;PMS7003;12220;50.194;18.948;2023-07-09T06:32:06;16;16;13
24012;PMS7003;12220;50.194;18.948;2023-07-09T06:34:16;22;22;18
24012;PMS7003;12220;50.194;18.948;2023-07-09T06:36:18;20;20;17
24012;PMS7003;12220;50.194;18.948;2023-07-09T06:38:20;16;16;14
24012;PMS7003;12220;50.194;18.948;2023-07-09T06:40:22;12;12;10
24012;PMS7003;12220;50.194;18.948;2023-07-09T06:42:28;16;16;13
24012;PMS7003;12220;50.194;18.948;2023-07-09T06:44:29;18;17;14
24012;PMS7003;12220;50.194;18.948;2023-07-09T06:46:30;16;16;14
24012;PMS7003;12220;50.194;18.948;2023-07-09T06:48:32;15;15;14
24012;PMS7003;12220;50.194;18.948;2023-07-09T06:50:43;17;17;14
24012;PMS7003;12220;50.194;18.948;2023-07-09T06:52:44;18;18;15
24012;PMS7003;12220;50.194;18.948;2023-07-09T06:54:46;20;17;14
24012;PMS7003;12220;50.194;18.948;2023-07-09T06:56:47;12;12;10
24012;PMS7003;12220;50.194;18.948;2023-07-09T06:58:57;15;14;12
24012;PMS7003;12220;50.194;18.948;2023-07-09T07:01:02;12;12;11
24012;PMS7003;12220;50.194;18.948;2023-07-09T07:03:05;12;12;11
24012;PMS7003;12220;50.194;18.948;2023-07-09T07:05:06;12;12;10
24012;PMS7003;12220;50.194;18.948;2023-07-09T07:07:12;16;14;11
24012;PMS7003;12220;50.194;18.948;2023-07-09T07:09:16;12;12;10
24012;PMS7003;12220;50.194;18.948;2023-07-09T07:11:18;12;12;11
24012;PMS7003;12220;50.194;18.948;2023-07-09T07:13:20;9;9;8
24012;PMS7003;12220;50.194;18.948;2023-07-09T07:15:27;14;13;11
24012;PMS7003;12220;50.194;18.948;2023-07-09T07:17:28;10;10;10
24012;PMS7003;12220;50.194;18.948;2023-07-09T07:19:30;11;10;9
24012;PMS7003;12220;50.194;18.948;2023-07-09T07:21:31;13;10;9
24012;PMS7003;12220;50.194;18.948;2023-07-09T07:23:42;10;9;8
24012;PMS7003;12220;50.194;18.948;2023-07-09T07:25:44;11;11;10
24012;PMS7003;12220;50.194;18.948;2023-07-09T07:27:46;10;10;9
24012;PMS7003;12220;50.194;18.948;2023-07-09T07:29:48;11;9;9
24012;PMS7003;12220;50.194;18.948;2023-07-09T07:31:57;8;8;8
24012;PMS7003;12220;50.194;18.948;2023-07-09T07:33:58;13;13;12
24012;PMS7003;12220;50.194;18.948;2023-07-09T07:36:00;10;10;8
24012;PMS7003;12220;50.194;18.948;2023-07-09T07:38:04;12;12;11
24012;PMS7003;12220;50.194;18.948;2023-07-09T07:40:11;12;12;10
24012;PMS7003;12220;50.194;18.948;2023-07-09T07:42:13;10;10;9
24012;PMS7003;12220;50.194;18.948;2023-07-09T07:44:15;12;11;10
24012;PMS7003;12220;50.194;18.948;2023-07-09T07:46:16;10;10;9
24012;PMS7003;12220;50.194;18.948;2023-07-09T07:48:26;9;9;8
24012;PMS7003;12220;50.194;18.948;2023-07-09T07:50:28;11;9;9
24012;PMS7003;12220;50.194;18.948;2023-07-09T07:52:29;8;8;7
24012;PMS7003;12220;50.194;18.948;2023-07-09T07:54:30;8;8;6
24012;PMS7003;12220;50.194;18.948;2023-07-09T07:56:41;9;8;7
24012;PMS7003;12220;50.194;18.948;2023-07-09T07:58:43;8;8;7
24012;PMS7003;12220;50.194;18.948;2023-07-09T08:00:44;9;9;8
24012;PMS7003;12220;50.194;18.948;2023-07-09T08:02:46;7;7;7
24012;PMS7003;12220;50.194;18.948;2023-07-09T08:04:56;7;5;5
24012;PMS7003;12220;50.194;18.948;2023-07-09T08:06:57;6;6;6
24012;PMS7003;12220;50.194;18.948;2023-07-09T08:08:59;5;5;5
24012;PMS7003;12220;50.194;18.948;2023-07-09T08:11:01;7;7;7
24012;PMS7003;12220;50.194;18.948;2023-07-09T08:13:11;7;7;7
24012;PMS7003;12220;50.194;18.948;2023-07-09T08:15:13;8;7;7
24012;PMS7003;12220;50.194;18.948;2023-07-09T08:18:52;11;8;7
24012;PMS7003;12220;50.194;18.948;2023-07-09T08:20:58;10;10;9
24012;PMS7003;12220;50.194;18.948;2023-07-09T08:23:00;7;7;7
24012;PMS7003;12220;50.194;18.948;2023-07-09T08:25:07;8;8;7
24012;PMS7003;12220;50.194;18.948;2023-07-09T08:27:09;7;7;7
24012;PMS7003;12220;50.194;18.948;2023-07-09T08:29:11;6;4;4
24012;PMS7003;12220;50.194;18.948;2023-07-09T08:31:12;7;7;6
24012;PMS7003;12220;50.194;18.948;2023-07-09T08:33:23;9;7;7
24012;PMS7003;12220;50.194;18.948;2023-07-09T08:35:25;8;8;7
24012;PMS7003;12220;50.194;18.948;2023-07-09T08:37:26;11;10;8
24012;PMS7003;12220;50.194;18.948;2023-07-09T08:39:27;9;9;8
24012;PMS7003;12220;50.194;18.948;2023-07-09T08:41:39;6;6;5
24012;PMS7003;12220;50.194;18.948;2023-07-09T08:43:54;9;9;7
24012;PMS7003;12220;50.194;18.948;2023-07-09T08:46:03;12;9;8
24012;PMS7003;12220;50.194;18.948;2023-07-09T08:50:24;8;8;7
24012;PMS7003;12220;50.194;18.948;2023-07-09T08:52:36;7;7;7
24012;PMS7003;12220;50.194;18.948;2023-07-09T08:54:46;7;7;6
24012;PMS7003;12220;50.194;18.948;2023-07-09T08:56:50;7;7;6
24012;PMS7003;12220;50.194;18.948;2023-07-09T08:58:52;6;6;5
24012;PMS7003;12220;50.194;18.948;2023-07-09T09:00:59;7;7;7
24012;PMS7003;12220;50.194;18.948;2023-07-09T09:03:05;6;6;6
24012;PMS7003;12220;50.194;18.948;2023-07-09T09:05:23;6;6;6
24012;PMS7003;12220;50.194;18.948;2023-07-09T09:09:43;7;7;7
24012;PMS7003;12220;50.194;18.948;2023-07-09T09:16:28;9;8;8
24012;PMS7003;12220;50.194;18.948;2023-07-09T09:18:40;7;7;6
24012;PMS7003;12220;50.194;18.948;2023-07-09T09:20:54;9;9;7
24012;PMS7003;12220;50.194;18.948;2023-07-09T09:23:14;9;9;7
24012;PMS7003;12220;50.194;18.948;2023-07-09T09:27:31;7;6;5
24012;PMS7003;12220;50.194;18.948;2023-07-09T09:29:32;8;7;7
24012;PMS7003;12220;50.194;18.948;2023-07-09T09:31:36;8;8;8
24012;PMS7003;12220;50.194;18.948;2023-07-09T09:33:42;8;7;7
24012;PMS7003;12220;50.194;18.948;2023-07-09T09:35:45;9;7;7
24012;PMS7003;12220;50.194;18.948;2023-07-09T09:37:53;10;9;7
24012;PMS7003;12220;50.194;18.948;2023-07-09T09:39:55;5;5;5
24012;PMS7003;12220;50.194;18.948;2023-07-09T09:41:59;6;6;6
24012;PMS7003;12220;50.194;18.948;2023-07-09T09:44:00;10;10;9
24012;PMS7003;12220;50.194;18.948;2023-07-09T09:46:05;15;15;11
24012;PMS7003;12220;50.194;18.948;2023-07-09T09:48:26;7;6;6
24012;PMS7003;12220;50.194;18.948;2023-07-09T09:50:27;10;10;9
24012;PMS7003;12220;50.194;18.948;2023-07-09T09:52:32;9;9;8
24012;PMS7003;12220;50.194;18.948;2023-07-09T09:54:34;7;7;7
24012;PMS7003;12220;50.194;18.948;2023-07-09T09:56:41;10;10;9
24012;PMS7003;12220;50.194;18.948;2023-07-09T09:58:51;8;8;7
24012;PMS7003;12220;50.194;18.948;2023-07-09T10:01:02;6;6;6
24012;PMS7003;12220;50.194;18.948;2023-07-09T10:03:04;11;10;9
24012;PMS7003;12220;50.194;18.948;2023-07-09T10:05:11;6;6;5
24012;PMS7003;12220;50.194;18.948;2023-07-09T10:11:47;8;8;8
24012;PMS7003;12220;50.194;18.948;2023-07-09T10:14:00;6;6;6
24012;PMS7003;12220;50.194;18.948;2023-07-09T10:16:14;7;6;5
24012;PMS7003;12220;50.194;18.948;2023-07-09T10:20:51;6;6;5
24012;PMS7003;12220;50.194;18.948;2023-07-09T10:27:26;9;6;6
24012;PMS7003;12220;50.194;18.948;2023-07-09T10:29:53;7;7;6
24012;PMS7003;12220;50.194;18.948;2023-07-09T10:31:58;7;7;6
24012;PMS7003;12220;50.194;18.948;2023-07-09T10:39:02;9;9;8
24012;PMS7003;12220;50.194;18.948;2023-07-09T10:41:18;8;8;7
24012;PMS7003;12220;50.194;18.948;2023-07-09T10:45:43;9;8;8
24012;PMS7003;12220;50.194;18.948;2023-07-09T10:47:53;8;8;7
24012;PMS7003;12220;50.194;18.948;2023-07-09T10:50:03;7;7;6
24012;PMS7003;12220;50.194;18.948;2023-07-09T10:52:18;5;5;5
24012;PMS7003;12220;50.194;18.948;2023-07-09T10:56:45;9;9;8
24012;PMS7003;12220;50.194;18.948;2023-07-09T11:01:06;9;9;9
24012;PMS7003;12220;50.194;18.948;2023-07-09T11:05:21;9;7;7
24012;PMS7003;12220;50.194;18.948;2023-07-09T11:09:54;9;9;8
24012;PMS7003;12220;50.194;18.948;2023-07-09T11:11:59;8;8;7
24012;PMS7003;12220;50.194;18.948;2023-07-09T11:14:14;7;7;6
24012;PMS7003;12220;50.194;18.948;2023-07-09T11:16:25;6;6;6
24012;PMS7003;12220;50.194;18.948;2023-07-09T11:18:34;7;7;6
24012;PMS7003;12220;50.194;18.948;2023-07-09T11:23:06;13;12;10
24012;PMS7003;12220;50.194;18.948;2023-07-09T11:30:15;7;7;7
24012;PMS7003;12220;50.194;18.948;2023-07-09T11:32:24;6;6;5
24012;PMS7003;12220;50.194;18.948;2023-07-09T11:34:28;10;10;8
24012;PMS7003;12220;50.194;18.948;2023-07-09T11:36:30;6;6;6
24012;PMS7003;12220;50.194;18.948;2023-07-09T11:43:02;9;9;8
24012;PMS7003;12220;50.194;18.948;2023-07-09T11:47:22;10;10;8
24012;PMS7003;12220;50.194;18.948;2023-07-09T11:49:34;6;6;6
24012;PMS7003;12220;50.194;18.948;2023-07-09T11:51:45;13;13;11
24012;PMS7003;12220;50.194;18.948;2023-07-09T11:53:54;10;10;9
24012;PMS7003;12220;50.194;18.948;2023-07-09T11:56:03;5;5;5
24012;PMS7003;12220;50.194;18.948;2023-07-09T11:58:05;7;7;6
24012;PMS7003;12220;50.194;18.948;2023-07-09T12:00:08;4;4;4
24012;PMS7003;12220;50.194;18.948;2023-07-09T12:04:23;7;7;7
24012;PMS7003;12220;50.194;18.948;2023-07-09T12:06:41;11;9;7
24012;PMS7003;12220;50.194;18.948;2023-07-09T12:08:44;9;9;8
24012;PMS7003;12220;50.194;18.948;2023-07-09T12:10:47;8;7;6
24012;PMS7003;12220;50.194;18.948;2023-07-09T12:12:48;5;5;5
24012;PMS7003;12220;50.194;18.948;2023-07-09T12:14:54;7;7;7
24012;PMS7003;12220;50.194;18.948;2023-07-09T12:16:56;12;11;9
24012;PMS7003;12220;50.194;18.948;2023-07-09T12:18:57;5;5;4
24012;PMS7003;12220;50.194;18.948;2023-07-09T12:20:58;9;8;8
24012;PMS7003;12220;50.194;18.948;2023-07-09T12:23:17;13;12;11
24012;PMS7003;12220;50.194;18.948;2023-07-09T12:25:30;6;6;6
24012;PMS7003;12220;50.194;18.948;2023-07-09T12:27:32;8;7;7
24012;PMS7003;12220;50.194;18.948;2023-07-09T12:29:40;10;10;8
24012;PMS7003;12220;50.194;18.948;2023-07-09T12:31:42;9;9;9
24012;PMS7003;12220;50.194;18.948;2023-07-09T12:33:49;6;6;6
24012;PMS7003;12220;50.194;18.948;2023-07-09T12:35:55;9;9;8
24012;PMS7003;12220;50.194;18.948;2023-07-09T12:37:59;8;8;7
24012;PMS7003;12220;50.194;18.948;2023-07-09T12:40:00;6;6;5
24012;PMS7003;12220;50.194;18.948;2023-07-09T12:42:03;8;8;8
24012;PMS7003;12220;50.194;18.948;2023-07-09T12:44:05;9;9;7
24012;PMS7003;12220;50.194;18.948;2023-07-09T12:46:12;14;11;10
24012;PMS7003;12220;50.194;18.948;2023-07-09T12:48:13;11;11;10
24012;PMS7003;12220;50.194;18.948;2023-07-09T12:50:19;6;6;5
24012;PMS7003;12220;50.194;18.948;2023-07-09T12:52:26;7;7;7
24012;PMS7003;12220;50.194;18.948;2023-07-09T12:54:28;11;11;10
24012;PMS7003;12220;50.194;18.948;2023-07-09T12:56:30;7;7;7
24012;PMS7003;12220;50.194;18.948;2023-07-09T12:58:36;5;5;5
24012;PMS7003;12220;50.194;18.948;2023-07-09T13:00:39;7;7;7
24012;PMS7003;12220;50.194;18.948;2023-07-09T13:02:40;9;9;9
24012;PMS7003;12220;50.194;18.948;2023-07-09T13:04:41;9;9;8
24012;PMS7003;12220;50.194;18.948;2023-07-09T13:06:47;8;8;8
24012;PMS7003;12220;50.194;18.948;2023-07-09T13:08:54;11;9;8
24012;PMS7003;12220;50.194;18.948;2023-07-09T13:10:59;11;11;10
24012;PMS7003;12220;50.194;18.948;2023-07-09T13:13:02;7;7;7
24012;PMS7003;12220;50.194;18.948;2023-07-09T13:15:05;8;8;8
24012;PMS7003;12220;50.194;18.948;2023-07-09T13:17:12;6;6;6
24012;PMS7003;12220;50.194;18.948;2023-07-09T13:19:20;4;4;4
24012;PMS7003;12220;50.194;18.948;2023-07-09T13:21:24;12;12;11
24012;PMS7003;12220;50.194;18.948;2023-07-09T13:23:26;12;12;11
24012;PMS7003;12220;50.194;18.948;2023-07-09T13:25:30;9;8;7
24012;PMS7003;12220;50.194;18.948;2023-07-09T13:27:31;10;10;9
24012;PMS7003;12220;50.194;18.948;2023-07-09T13:29:33;8;8;8
24012;PMS7003;12220;50.194;18.948;2023-07-09T13:31:39;8;8;7
24012;PMS7003;12220;50.194;18.948;2023-07-09T13:33:41;10;10;9
24012;PMS7003;12220;50.194;18.948;2023-07-09T13:35:50;10;10;9
24012;PMS7003;12220;50.194;18.948;2023-07-09T13:37:54;6;6;5
24012;PMS7003;12220;50.194;18.948;2023-07-09T13:39:56;7;7;7
24012;PMS7003;12220;50.194;18.948;2023-07-09T13:41:57;13;9;9
24012;PMS7003;12220;50.194;18.948;2023-07-09T13:43:58;10;10;9
24012;PMS7003;12220;50.194;18.948;2023-07-09T13:46:01;13;12;11
24012;PMS7003;12220;50.194;18.948;2023-07-09T13:48:17;6;6;6
24012;PMS7003;12220;50.194;18.948;2023-07-09T13:50:20;11;11;9
24012;PMS7003;12220;50.194;18.948;2023-07-09T13:52:24;8;8;8
24012;PMS7003;12220;50.194;18.948;2023-07-09T13:54:27;9;6;5
24012;PMS7003;12220;50.194;18.948;2023-07-09T13:56:38;6;4;4
24012;PMS7003;12220;50.194;18.948;2023-07-09T13:58:50;14;13;12
24012;PMS7003;12220;50.194;18.948;2023-07-09T14:00:54;9;9;8
24012;PMS7003;12220;50.194;18.948;2023-07-09T14:03:09;7;7;7
24012;PMS7003;12220;50.194;18.948;2023-07-09T14:05:18;8;8;8
24012;PMS7003;12220;50.194;18.948;2023-07-09T14:07:38;11;10;9
24012;PMS7003;12220;50.194;18.948;2023-07-09T14:09:33;6;6;5
24012;PMS7003;12220;50.194;18.948;2023-07-09T14:11:34;7;7;6
24012;PMS7003;12220;50.194;18.948;2023-07-09T14:13:44;5;4;4
24012;PMS7003;12220;50.194;18.948;2023-07-09T14:15:47;10;9;9
24012;PMS7003;12220;50.194;18.948;2023-07-09T14:17:48;7;4;4
24012;PMS7003;12220;50.194;18.948;2023-07-09T14:19:51;11;8;7
24012;PMS7003;12220;50.194;18.948;2023-07-09T14:21:53;9;9;8
24012;PMS7003;12220;50.194;18.948;2023-07-09T14:23:54;9;9;8
24012;PMS7003;12220;50.194;18.948;2023-07-09T14:26:03;8;8;8
24012;PMS7003;12220;50.194;18.948;2023-07-09T14:28:07;8;8;7